Aérodrome :
LOGIN :

S'inscrire | Disclaimer

   EN    FR    IT 

 










Légende :    VFR   VFR Marginal   IFR   IFR Intensif   IFR Très Intensif
Visi : 
Plafond : 
>= 8 km
>= 3000ft
5 à 8 km
1000 à 3000 ft
1500m à 5 km
500 à 1000 ft
800 à 1500m
200 à 500 ft
< 800m
< 200 ft
Symboles :   Orages  Brouillard  Fortes neiges  Fortes précipitations  Vent > 20 kt
SIGMETs :   Divers  Orages  Givrage  Turbulence  Onde Orograph.  Cendres Volcan.







- Altitude de l'aérodrome : 1906 ft
- Code IATA : INN


LOWI - Innsbruck

DERNIER METAR :
  • 191820Z VRB02KT 9999 -RA FEW007 BKN033 BKN040 07/06 Q1019 NOSIG

METARs EXPIRÉS :
  • 191750Z VRB02KT 9999 -RA FEW007 SCT025 BKN035 07/06 Q1019 NOSIG
  • 191720Z VRB02KT 9999 -RA FEW007 SCT025 BKN035 07/06 Q1019 TEMPO RA
  • 191650Z 08003KT 050V110 9999 -RA FEW007 SCT025 BKN040 07/06 Q1018 TEMPO RA
  • 191620Z 07004KT 040V100 9999 -RA FEW005 SCT025 BKN040 08/06 Q1018 TEMPO RA
  • 191550Z 07005KT 9999 -RA FEW005 SCT028 BKN040 08/06 Q1018 TEMPO RA

TAF TAF LOWI
Valide du 19 à 18h jusqu'au 20 à 18h UTC


191715Z 1918/2018 09004KT 9999 FEW004 SCT010 BKN035 TX12/2013Z TN06/2002Z
TEMPO 1918/2009 6000 RA SCT005 BKN013
PROB30
TEMPO 2000/2007 4000 BR BKN008
BECMG 2010/2012 SCT025 BKN080
Pas de NOTAMs connus pour ce terrain.
1 SIGMET publié pour la FIR Wien (LOVV) :
 
Orages noyés dans la masse
LOVV SIGMET 8 VALID 191818/191915 LOWW
LOVV WIEN FIR EMBD TS FCST WI N4740 E01305 - N4810 E01305 - N4810 E01340 - N4740 E01340 - N4740 E01305 TOP FL240 STNR WKN=



MET'MAP, la Météo Aéronautique d'un coup d'oeil ! - Copyright ORBIFLY Décembre 2007 - Disclaimer

ORBIFLY MET'MAP TEAM :

Programmation & Développement : Alexandra Zaïnal
Conception & Développement : Baudouin d'Aumeries
Co-Programmation & Développement : Marc-Olivier Méhu
Soutien technique & logistique : Manuel Goepfert

Contact : metmap@orbifly.com




SOURCES & CREDITS :

   NOAA